Latest Weather Observations for Norseman Airport

IDW60801

Issued at 6:33 pm WST Tuesday 25 July 2017 (issued every 30 minutes, with the page automatically refreshed every 10 minutes)

About weather observations | Map of weather stations | Latest weather observations for WA | Other Formats
Station Details ID: 012009 Name: NORSEMAN AERO Lat: -32.21 Lon: 121.75 Height: 262.5 m
Data from the previous 72 hours. | See also: Recent months at Norseman Airport
Date/Time
WST
Temp
°C
App
Temp
°C
Dew
Point
°C
Rel
Hum
%
Delta-T
°C
Wind Press
QNH
hPa
Press
MSL
hPa
Rain since
9am
mm
Dir  Spd
km/h
Gust
km/h
Spd
kts
Gust
kts
25/06:30pm 11.2 8.4 3.0 57 3.6 ENE 7 11 4 6 1020.2 1020.4 0.0
25/06:00pm 13.2 10.1 3.6 52 4.4 ENE 9 15 5 8 1020.1 1020.3 0.0
25/05:30pm 16.5 14.0 4.9 46 5.6 NW 7 9 4 5 1019.9 1020.1 0.0
25/05:00pm 18.3 15.2 3.8 38 6.9 NW 9 13 5 7 1019.6 1019.8 0.0
25/04:30pm 18.7 14.7 2.9 35 7.4 NNW 13 20 7 11 1019.7 1019.9 0.0
25/04:00pm 19.7 15.4 3.4 34 7.8 N 15 20 8 11 1019.6 1019.8 0.0
25/03:30pm 19.9 15.5 2.7 32 8.1 NW 15 22 8 12 1019.5 1019.7 0.0
25/03:00pm 20.1 16.9 3.3 33 8.0 WNW 9 17 5 9 1019.3 1019.4 0.0
25/02:30pm 20.2 16.8 3.9 34 7.9 NW 11 24 6 13 1019.7 1019.9 0.0
25/02:00pm 19.3 15.1 3.9 36 7.4 NNW 15 22 8 12 1019.6 1019.8 0.0
25/01:30pm 18.6 15.7 4.4 39 6.9 NW 9 15 5 8 1019.7 1019.9 0.0
25/01:00pm 18.8 16.3 4.9 40 6.8 SW 7 13 4 7 1020.2 1020.4 0.0
25/12:30pm 18.6 15.4 5.1 41 6.6 NW 11 19 6 10 1020.6 1020.8 0.0
25/12:00pm 17.6 15.3 4.6 42 6.2 WNW 6 15 3 8 1021.6 1021.8 0.0
25/11:30am 17.0 14.7 5.9 48 5.5 NNE 7 11 4 6 1021.8 1022.0 0.0
25/11:00am 15.6 13.4 6.1 53 4.6 N 7 11 4 6 1022.2 1022.4 0.0
25/10:30am 14.9 12.5 7.0 59 3.9 NNE 9 11 5 6 1022.8 1023.1 0.0
25/10:00am 13.2 11.2 7.0 66 3.0 N 7 11 4 6 1022.9 1023.2 0.0
25/09:30am 11.9 10.4 6.6 70 2.6 N 4 7 2 4 1022.6 1022.9 0.0
25/09:00am 10.4 8.2 6.4 76 1.9 N 7 9 4 5 1022.6 1022.9 0.0
25/08:30am 9.1 8.0 5.3 77 1.7 CALM 0 6 0 3 1022.4 1022.6 0.0
25/08:00am 7.0 5.3 4.1 82 1.3 ENE 2 9 1 5 1022.4 1022.6 0.0
25/07:30am 3.3 1.3 2.1 92 0.5 ENE 2 6 1 3 1022.4 1022.6 0.0
25/07:00am 1.8 0.0 0.9 94 0.3 CALM 0 0 0 0 1021.9 1022.1 0.0
25/06:30am 1.8 0.0 0.9 94 0.3 CALM 0 0 0 0 1021.5 1021.7 0.0
25/06:00am 2.4 -0.7 1.5 94 0.4 E 7 9 4 5 1020.9 1021.1 0.0
25/05:30am 3.3 0.3 2.1 92 0.5 NE 7 9 4 5 1020.9 1021.1 0.0
25/05:00am 3.3 0.0 2.3 93 0.4 NE 9 11 5 6 1020.7 1020.9 0.0
25/04:30am 2.5 0.3 1.2 91 0.5 SSE 2 7 1 4 1020.5 1020.7 0.0
25/04:00am 3.0 1.2 1.4 89 0.6 CALM 0 0 0 0 1020.2 1020.4 0.0
25/03:30am 3.8 1.0 2.3 90 0.6 SE 6 9 3 5 1020.3 1020.5 0.0
25/03:00am 4.6 1.9 2.5 86 0.9 E 6 7 3 4 1020.5 1020.7 0.0
25/02:30am 5.4 3.9 2.9 84 1.0 CALM 0 7 0 4 1020.1 1020.3 0.0
25/02:00am 6.7 5.3 3.5 80 1.4 CALM 0 0 0 0 1020.3 1020.5 0.0
25/01:30am 7.5 5.8 3.9 78 1.6 WSW 2 6 1 3 1020.1 1020.3 0.0
25/01:00am 7.6 4.5 3.5 75 1.8 WSW 9 11 5 6 1020.1 1020.3 0.0
25/12:30am 9.8 6.5 4.4 69 2.4 SSW 11 15 6 8 1020.1 1020.3 0.0
25/12:00am 7.7 5.6 3.7 76 1.7 WNW 4 9 2 5 1019.8 1020.0 0.0
 
Date/Time
WST
Temp
°C
App
Temp
°C
Dew
Point
°C
Rel
Hum
%
Delta-T
°C
Wind Press
QNH
hPa
Press
MSL
hPa
Rain since
9am
mm
Dir  Spd
km/h
Gust
km/h
Spd
kts
Gust
kts
24/11:30pm 8.2 5.2 4.2 76 1.8 ENE 9 11 5 6 1019.6 1019.8 0.0
24/11:00pm 7.3 5.9 3.5 77 1.6 CALM 0 0 0 0 1020.0 1020.2 0.0
24/10:30pm 7.2 5.8 3.3 76 1.7 CALM 0 0 0 0 1019.8 1020.0 0.0
24/10:00pm 7.1 5.7 3.5 78 1.5 CALM 0 0 0 0 1019.6 1019.8 0.0
24/09:30pm 7.1 5.6 3.0 75 1.7 CALM 0 0 0 0 1019.6 1019.8 0.0
24/09:00pm 8.3 6.9 3.6 72 2.0 CALM 0 0 0 0 1019.5 1019.7 0.0
24/08:30pm 9.6 7.1 3.8 67 2.6 SE 6 7 3 4 1019.4 1019.5 0.0
24/08:00pm 12.3 10.4 4.8 60 3.5 SW 4 7 2 4 1019.3 1019.4 0.0
24/07:30pm 12.6 9.8 5.1 60 3.5 SW 9 11 5 6 1019.3 1019.4 0.0
24/07:00pm 13.5 10.3 5.2 57 3.9 SW 11 13 6 7 1018.9 1019.1 0.0
24/06:30pm 14.9 12.5 5.4 53 4.6 W 7 9 4 5 1018.5 1018.7 0.0
24/06:00pm 15.7 12.0 4.4 47 5.3 W 13 17 7 9 1018.1 1018.3 0.0
24/05:30pm 16.2 11.7 4.3 45 5.6 W 17 22 9 12 1017.6 1017.8 0.0
24/05:00pm 16.7 11.7 4.4 44 5.9 W 20 28 11 15 1017.3 1017.5 0.0
24/04:30pm 17.2 11.4 4.2 42 6.2 W 24 32 13 17 1017.2 1017.4 0.0
24/04:00pm 17.4 12.6 4.4 42 6.2 W 19 26 10 14 1017.0 1017.2 0.0
24/03:30pm 18.0 13.0 4.6 41 6.5 W 20 28 11 15 1016.9 1017.1 0.0
24/03:00pm 18.3 12.1 4.5 40 6.7 WNW 26 41 14 22 1016.6 1016.8 0.0
24/02:30pm 17.2 12.3 5.2 45 5.8 W 20 28 11 15 1016.6 1016.8 0.0
24/02:00pm 18.3 13.3 4.8 41 6.6 WNW 20 28 11 15 1016.7 1016.9 0.0
24/01:30pm 17.6 12.0 5.2 44 6.1 W 24 32 13 17 1016.9 1017.1 0.0
24/01:00pm 16.9 11.7 5.5 47 5.6 W 22 32 12 17 1017.3 1017.5 0.0
24/12:30pm 16.3 11.7 5.6 49 5.2 W 19 26 10 14 1017.6 1017.8 0.0
24/12:00pm 15.9 11.2 6.1 52 4.8 WNW 20 30 11 16 1018.0 1018.2 0.0
24/11:30am 15.8 10.8 6.3 53 4.7 W 22 30 12 16 1018.4 1018.6 0.0
24/11:00am 16.2 11.2 6.6 53 4.8 WSW 22 32 12 17 1018.7 1018.9 0.0
24/10:30am 15.3 11.0 6.8 57 4.2 W 19 28 10 15 1019.0 1019.2 0.0
24/10:00am 14.2 11.9 7.3 63 3.4 WSW 9 15 5 8 1019.0 1019.2 0.0
24/09:30am 13.6 10.7 8.2 70 2.7 WSW 13 19 7 10 1019.3 1019.4 0.0
24/09:00am 12.6 11.5 8.5 76 2.1 NW 4 15 2 8 1019.4 1019.5 0.0
24/08:30am 10.6 9.2 7.3 80 1.6 N 4 7 2 4 1019.2 1019.3 0.0
24/08:00am 8.5 6.6 6.5 87 0.9 SE 6 7 3 4 1018.9 1019.1 0.0
24/07:30am 5.3 2.8 4.0 91 0.6 E 6 7 3 4 1018.8 1019.0 0.0
24/07:00am 4.3 1.8 3.7 96 0.3 SW 6 7 3 4 1018.5 1018.7 0.0
24/06:30am 4.1 2.6 2.8 91 0.5 CALM 0 0 0 0 1018.3 1018.5 0.0
24/06:00am 4.8 3.3 3.1 89 0.7 CALM 0 0 0 0 1017.8 1018.0 0.0
24/05:30am 6.5 3.6 4.7 88 0.8 SSW 9 9 5 5 1017.4 1017.6 0.0
24/05:00am 7.0 4.5 4.8 86 1.0 SW 7 9 4 5 1017.2 1017.4 0.0
24/04:30am 8.3 5.1 5.2 81 1.4 SW 11 13 6 7 1016.7 1016.9 0.0
24/04:00am 9.4 7.3 5.8 78 1.7 W 6 9 3 5 1016.3 1016.5 0.0
24/03:30am 9.4 6.6 5.2 75 1.9 WSW 9 11 5 6 1016.4 1016.6 0.0
24/03:00am 9.9 7.2 5.7 75 2.0 WSW 9 13 5 7 1016.4 1016.6 0.0
24/02:30am 9.7 6.9 5.3 74 2.0 WNW 9 11 5 6 1016.6 1016.8 0.0
24/02:00am 10.5 7.7 5.3 70 2.4 W 9 11 5 6 1016.4 1016.6 0.0
24/01:30am 10.2 7.4 5.0 70 2.4 WSW 9 11 5 6 1016.5 1016.7 0.0
24/01:00am 10.1 7.6 4.7 69 2.5 WSW 7 9 4 5 1016.5 1016.7 0.0
24/12:30am 10.3 7.4 4.7 68 2.6 W 9 13 5 7 1016.4 1016.6 0.0
24/12:00am 11.8 8.2 5.0 63 3.2 W 13 15 7 8 1016.5 1016.7 0.0
 
Date/Time
WST
Temp
°C
App
Temp
°C
Dew
Point
°C
Rel
Hum
%
Delta-T
°C
Wind Press
QNH
hPa
Press
MSL
hPa
Rain since
9am
mm
Dir  Spd
km/h
Gust
km/h
Spd
kts
Gust
kts
23/11:30pm 14.0 9.7 5.4 56 4.1 WNW 17 24 9 13 1016.6 1016.8 0.0
23/11:00pm 14.5 9.6 5.3 54 4.4 WNW 20 35 11 19 1016.7 1016.9 0.0
23/10:30pm 13.9 9.0 5.0 55 4.2 NW 20 28 11 15 1016.8 1017.0 0.0
23/10:00pm 14.0 9.2 4.9 54 4.3 NW 19 24 10 13 1016.7 1016.9 0.0
23/09:30pm 13.9 9.1 4.8 54 4.3 NW 19 22 10 12 1016.6 1016.8 0.0
23/09:00pm 13.3 9.3 4.7 56 4.0 NW 15 19 8 10 1016.7 1016.9 0.0
23/08:30pm 13.8 9.8 4.7 54 4.3 WNW 15 22 8 12 1016.5 1016.7 0.0
23/08:00pm 14.0 10.3 4.6 53 4.4 WNW 13 20 7 11 1016.4 1016.6 0.0
23/07:30pm 13.8 10.1 4.4 53 4.4 W 13 15 7 8 1016.4 1016.6 0.0
23/07:00pm 14.3 10.2 4.3 51 4.7 WNW 15 19 8 10 1016.1 1016.2 0.0
23/06:30pm 14.7 11.0 4.7 51 4.7 WNW 13 15 7 8 1015.8 1015.9 0.0
23/06:00pm 15.4 11.8 4.8 49 5.0 WNW 13 17 7 9 1015.5 1015.6 0.0
23/05:30pm 16.7 12.2 4.1 43 6.0 WNW 17 22 9 12 1015.0 1015.2 0.0
23/05:00pm 18.4 13.2 3.8 38 7.0 WNW 20 28 11 15 1014.8 1015.0 0.0
23/04:30pm 19.3 12.0 4.6 38 7.2 WNW 32 44 17 24 1014.7 1014.9 0.0
23/04:00pm 19.4 13.0 5.1 39 7.0 WNW 28 33 15 18 1014.7 1014.9 0.0
23/03:30pm 20.4 14.7 4.8 36 7.7 NW 24 30 13 16 1014.7 1014.9 0.0
23/03:00pm 20.5 13.7 4.9 36 7.7 NW 30 41 16 22 1014.6 1014.8 0.0
23/02:30pm 19.8 13.8 5.5 39 7.1 WNW 26 35 14 19 1014.8 1015.0 0.0
23/02:00pm 20.3 13.2 6.3 40 7.1 NW 33 41 18 22 1015.2 1015.3 0.0
23/01:30pm 19.3 12.5 6.8 44 6.4 NW 32 48 17 26 1015.7 1015.8 0.0
23/01:25pm 18.9 12.4 6.4 44 6.3 NW 30 48 16 26 1015.7 1015.8 0.0
23/01:00pm 19.0 12.6 7.1 46 6.1 NW 30 37 16 20 1016.0 1016.1 0.0
23/12:42pm 20.1 13.6 6.5 41 6.9 NW 30 52 16 28 1016.2 1016.3 0.0
23/12:30pm 18.5 11.2 7.0 47 5.9 NNW 35 48 19 26 1016.4 1016.6 0.0
23/12:00pm 18.9 12.7 8.0 49 5.7 NNW 30 39 16 21 1016.9 1017.1 0.0
23/11:30am 18.4 12.3 8.1 51 5.3 NNW 30 39 16 21 1017.7 1017.9 0.0
23/11:00am 16.9 12.2 9.3 61 4.0 N 24 30 13 16 1018.4 1018.6 0.0
23/10:30am 14.6 10.6 9.0 69 2.9 N 20 24 11 13 1018.7 1018.9 0.0
23/10:00am 12.9 8.7 8.2 73 2.4 N 20 24 11 13 1019.0 1019.2 0.0
23/09:30am 11.5 6.7 7.4 76 2.0 N 22 24 12 13 1019.4 1019.5 0.0
23/09:00am 9.9 4.5 6.4 79 1.6 N 24 28 13 15 1019.3 1019.4 0.0
23/08:30am 9.1 5.1 6.5 84 1.2 N 17 20 9 11 1019.0 1019.2 0.0
23/08:00am 6.7 5.3 5.3 91 0.6 NE 2 9 1 5 1019.0 1019.2 0.0
23/07:30am 3.6 1.1 3.5 99 0.0 NE 6 6 3 3 1018.9 1019.1 0.0
23/07:00am 1.5 -0.3 1.4 99 0.0 CALM 0 0 0 0 1018.9 1019.1 0.0
23/06:30am 1.6 -0.2 1.5 99 0.0 CALM 0 0 0 0 1018.7 1018.9 0.0
23/06:00am 1.7 -1.2 1.4 98 0.1 NE 6 7 3 4 1018.6 1018.8 0.0
23/05:30am 1.6 -0.9 1.3 98 0.1 NE 4 7 2 4 1018.6 1018.8 0.0
23/05:00am 1.7 -0.1 1.3 97 0.2 CALM 0 0 0 0 1018.5 1018.7 0.0
23/04:30am 2.3 0.6 1.9 97 0.2 CALM 0 0 0 0 1018.6 1018.8 0.0
23/04:00am 2.4 -0.6 2.0 97 0.2 NE 7 9 4 5 1018.8 1019.0 0.0
23/03:30am 2.7 -0.6 2.3 97 0.2 NE 9 9 5 5 1018.8 1019.0 0.0
23/03:00am 2.4 0.6 1.5 94 0.4 CALM 0 0 0 0 1019.0 1019.2 0.0
23/02:30am 2.8 0.0 1.8 93 0.4 NE 6 7 3 4 1018.8 1019.0 0.0
23/02:00am 3.3 0.4 2.4 94 0.4 ENE 7 9 4 5 1018.8 1019.0 0.0
23/01:30am 2.9 1.1 1.4 90 0.6 CALM 0 0 0 0 1018.9 1019.1 0.0
23/01:00am 3.3 1.6 1.8 90 0.6 CALM 0 0 0 0 1018.9 1019.1 0.0
23/12:30am 3.6 1.9 2.0 89 0.6 CALM 0 0 0 0 1019.0 1019.2 0.0
23/12:00am 3.8 2.1 1.8 87 0.8 CALM 0 0 0 0 1019.3 1019.4 0.0
 
Date/Time
WST
Temp
°C
App
Temp
°C
Dew
Point
°C
Rel
Hum
%
Delta-T
°C
Wind Press
QNH
hPa
Press
MSL
hPa
Rain since
9am
mm
Dir  Spd
km/h
Gust
km/h
Spd
kts
Gust
kts
22/11:30pm 4.3 2.6 1.8 84 1.0 CALM 0 6 0 3 1019.4 1019.5 0.0
22/11:00pm 5.4 2.5 2.8 83 1.1 NNE 7 9 4 5 1019.5 1019.7 0.0
22/10:30pm 5.5 3.9 2.5 81 1.2 CALM 0 0 0 0 1019.5 1019.7 0.0
22/10:00pm 6.6 3.1 3.4 80 1.4 NNE 11 13 6 7 1019.3 1019.4 0.0
22/09:30pm 6.6 4.3 2.9 77 1.6 ESE 4 7 2 4 1019.4 1019.5 0.0
22/09:00pm 6.9 5.4 2.8 75 1.7 CALM 0 0 0 0 1019.3 1019.4 0.0
22/08:30pm 8.0 6.6 3.5 73 2.0 CALM 0 0 0 0 1019.2 1019.3 0.0
22/08:00pm 8.1 6.7 3.6 73 2.0 CALM 0 0 0 0 1019.0 1019.2 0.0
22/07:30pm 8.5 6.7 3.6 71 2.1 S 2 6 1 3 1018.8 1019.0 0.0
22/07:00pm 9.2 7.8 3.8 69 2.4 CALM 0 0 0 0 1018.7 1018.9 0.0

Other Formats:

Comma delimited format used in spreadsheet applications
http://www.bom.gov.au/fwo/IDW60801/IDW60801.95642.axf

JavaScript Object Notation format (JSON) in row-major order
http://www.bom.gov.au/fwo/IDW60801/IDW60801.95642.json